ADDS METAR Data INFO
IDs: Format: Raw Decoded Include TAF

Data at: 1519 UTC 23 Oct 2017

KFME 231506Z AUTO 12004KT 10SM SCT011 SCT044 OVC050 20/17 A3021 RMK AO1
KFME 231424Z AUTO 12005KT 10SM OVC009 19/17 A3023 RMK AO1
KFME 231406Z AUTO 13003KT 10SM BKN007 OVC012 18/17 A3024 RMK AO1
KFME 231345Z AUTO 13004KT 10SM OVC007 18/17 A3024 RMK AO1
KFME 231324Z AUTO 15003KT 10SM OVC005 17/17 A3025 RMK AO1
KFME 231306Z AUTO 15003KT 5SM OVC003 17/17 A3025 RMK AO1
KFME 231245Z AUTO 00000KT 4SM OVC003 16/16 A3026 RMK AO1
KFME 231224Z AUTO 10003KT 2 1/2SM OVC003 16/16 A3026 RMK AO1
KFME 231206Z AUTO 00000KT 3SM OVC003 15/15 A3026 RMK AO1
KFME 231145Z AUTO 00000KT 3SM OVC003 15/15 A3026 RMK AO1
KFME 231124Z AUTO 00000KT 3SM OVC003 16/15 A3026 RMK AO1
KFME 231106Z AUTO 00000KT 3SM OVC003 15/15 A3027 RMK AO1
KFME 231045Z AUTO 00000KT 2 1/2SM OVC003 15/15 A3027 RMK AO1
KFME 231024Z AUTO 00000KT 1 1/2SM OVC001 15/15 A3027 RMK AO1
KFME 231006Z AUTO 00000KT 3/4SM OVC001 15/14 A3028 RMK AO1
KFME 230945Z AUTO 00000KT 1/2SM OVC001 13/13 A3028 RMK AO1
KFME 230924Z AUTO 00000KT 1/4SM OVC001 13/13 A3029 RMK AO1
KFME 230906Z AUTO 00000KT 1/2SM OVC001 13/13 A3029 RMK AO1
KFME 230845Z AUTO 00000KT 1/2SM OVC001 13/12 A3029 RMK AO1
KFME 230824Z AUTO 00000KT 1/4SM OVC001 13/12 A3029 RMK AO1
KFME 230806Z AUTO 00000KT 1/4SM OVC001 12/12 A3029 RMK AO1
KFME 230745Z AUTO 00000KT 1/2SM OVC001 12/12 A3030 RMK AO1
KFME 230724Z AUTO 00000KT 1/2SM OVC001 12/12 A3029 RMK AO1
KFME 230706Z AUTO 00000KT 5SM OVC001 12/11 A3030 RMK AO1
KFME 230645Z AUTO 00000KT 10SM OVC003 11/11 A3031 RMK AO1
KFME 230624Z AUTO 00000KT 10SM OVC003 11/10 A3031 RMK AO1
KFME 230606Z AUTO 00000KT 10SM OVC005 10/10 A3031 RMK AO1
KFME 230545Z AUTO 00000KT 10SM OVC005 10/10 A3032 RMK AO1
KFME 230524Z AUTO 00000KT 10SM SCT005 10/09 A3032 RMK AO1
KFME 230506Z AUTO 00000KT 10SM CLR 10/09 A3032 RMK AO1
KFME 230445Z AUTO 00000KT 10SM CLR 10/09 A3033 RMK AO1
KFME 230424Z AUTO 00000KT 10SM CLR 10/09 A3033 RMK AO1
KFME 230406Z AUTO 00000KT 10SM CLR 10/09 A3033 RMK AO1
KFME 230345Z AUTO 00000KT 10SM CLR 10/09 A3033 RMK AO1
KFME 230324Z AUTO 00000KT 10SM CLR 10/09 A3034 RMK AO1
KFME 230306Z AUTO 00000KT 10SM CLR 10/09 A3035 RMK AO1
KFME 230245Z AUTO 00000KT 10SM CLR 10/09 A3036 RMK AO1
KFME 230224Z AUTO 00000KT 10SM CLR 10/10 A3036 RMK AO1
KFME 230206Z AUTO 00000KT 10SM CLR 10/09 A3036 RMK AO1
KFME 230145Z AUTO 00000KT 10SM CLR 10/10 A3036 RMK AO1
KFME 230124Z AUTO 00000KT 10SM CLR 11/10 A3036 RMK AO1
KFME 230106Z AUTO 00000KT 10SM CLR 11/10 A3035 RMK AO1
KFME 230045Z AUTO 00000KT 10SM CLR 11/10 A3035 RMK AO1
KFME 230024Z AUTO 00000KT 10SM CLR 12/11 A3035 RMK AO1
KFME 230006Z AUTO 00000KT 10SM CLR 12/11 A3035 RMK AO1
KFME 222345Z AUTO 00000KT 10SM CLR 13/11 A3034 RMK AO1
KFME 222324Z AUTO 00000KT 10SM CLR 14/12 A3034 RMK AO1
KFME 222306Z AUTO 00000KT 10SM CLR 15/12 A3033 RMK AO1
KFME 222245Z AUTO 14003KT 10SM CLR 15/12 A3032 RMK AO1
KFME 222224Z AUTO 13004KT 10SM CLR 17/12 A3032 RMK AO1
KFME 222206Z AUTO 13003KT 10SM CLR 17/12 A3033 RMK AO1
KFME 222145Z AUTO 13004KT 10SM CLR 20/11 A3033 RMK AO1
KFME 222124Z AUTO 13007KT 10SM CLR 20/11 A3033 RMK AO1
KFME 222106Z AUTO 13007KT 10SM CLR 21/10 A3033 RMK AO1
KFME 222045Z AUTO 14008KT 10SM CLR 21/08 A3034 RMK AO1
KFME 222024Z AUTO 13006KT 10SM CLR 22/07 A3034 RMK AO1
KFME 222006Z AUTO 12008KT 10SM CLR 22/07 A3034 RMK AO1
KFME 221945Z AUTO 11007KT 10SM CLR 22/09 A3034 RMK AO1
KFME 221924Z AUTO 11006KT 10SM CLR 22/10 A3035 RMK AO1
KFME 221906Z AUTO 12008KT 10SM CLR 22/11 A3035 RMK AO1
KFME 221845Z AUTO 10005KT 10SM CLR 22/12 A3035 RMK AO1
KFME 221824Z AUTO 00000KT 10SM CLR 23/12 A3036 RMK AO1
KFME 221806Z AUTO 12006KT 10SM CLR 23/13 A3037 RMK AO1
KFME 221745Z AUTO 16004KT 10SM CLR 23/12 A3037 RMK AO1
KFME 221724Z AUTO 21006KT 10SM CLR 22/12 A3037 RMK AO1
KFME 221706Z AUTO 16003KT 10SM CLR 22/12 A3038 RMK AO1
KFME 221645Z AUTO 13004KT 10SM CLR 21/12 A3039 RMK AO1
KFME 221624Z AUTO 11006KT 10SM CLR 21/11 A3039 RMK AO1
KFME 221606Z AUTO 15004KT 10SM CLR 21/11 A3040 RMK AO1
KFME 221545Z AUTO 11004KT 10SM CLR 20/11 A3041 RMK AO1
KFME 221524Z AUTO 14005KT 10SM CLR 20/12 A3041 RMK AO1
KFME 221506Z AUTO 15003KT 10SM CLR 19/13 A3042 RMK AO1
KFME 221445Z AUTO 15004KT 10SM CLR 18/13 A3042 RMK AO1
KFME 221424Z AUTO 00000KT 10SM CLR 16/13 A3042 RMK AO1
KFME 221406Z AUTO 00000KT 10SM CLR 15/12 A3043 RMK AO1
KFME 221345Z AUTO 00000KT 10SM CLR 13/12 A3043 RMK AO1
KFME 221324Z AUTO 00000KT 10SM CLR 10/09 A3043 RMK AO1
KFME 221245Z AUTO 00000KT 10SM CLR 07/07 A3042 RMK AO1
KFME 221224Z AUTO 00000KT 10SM CLR 06/06 A3042 RMK AO1
KFME 221206Z AUTO 00000KT 10SM CLR 06/05 A3042 RMK AO1
KFME 221145Z AUTO 00000KT 10SM CLR 05/05 A3041 RMK AO1
KFME 221106Z AUTO 00000KT 10SM CLR 06/05 A3040 RMK AO1
KFME 221045Z AUTO 00000KT 10SM CLR 06/05 A3040 RMK AO1
KFME 221024Z AUTO 00000KT 10SM CLR 06/05 A3040 RMK AO1
KFME 221006Z AUTO 00000KT 10SM CLR 06/05 A3040 RMK AO1
KFME 220945Z AUTO 00000KT 10SM CLR 06/05 A3040 RMK AO1
KFME 220924Z AUTO 00000KT 10SM CLR 06/05 A3039 RMK AO1
KFME 220906Z AUTO 00000KT 2SM CLR 06/05 A3039 RMK AO1 VIS 3/4V5
KFME 220845Z AUTO 00000KT 10SM CLR 06/06 A3038 RMK AO1
KFME 220824Z AUTO 00000KT 10SM CLR 06/06 A3037 RMK AO1
KFME 220806Z AUTO 00000KT 10SM CLR 06/06 A3037 RMK AO1
KFME 220745Z AUTO 00000KT 10SM CLR 07/06 A3037 RMK AO1
KFME 220724Z AUTO 00000KT 10SM CLR 07/06 A3037 RMK AO1
KFME 220706Z AUTO 00000KT 10SM CLR 07/06 A3037 RMK AO1
KFME 220645Z AUTO 00000KT 10SM CLR 07/06 A3037 RMK AO1
KFME 220624Z AUTO 00000KT 10SM CLR 07/06 A3037 RMK AO1
KFME 220606Z AUTO 00000KT 10SM CLR 07/06 A3037 RMK AO1
KFME 220545Z AUTO 00000KT 10SM CLR 07/07 A3037 RMK AO1
KFME 220524Z AUTO 00000KT 10SM CLR 07/07 A3038 RMK AO1
KFME 220506Z AUTO 00000KT 10SM CLR 07/07 A3038 RMK AO1
KFME 220445Z AUTO 00000KT 10SM CLR 07/07 A3038 RMK AO1
KFME 220424Z AUTO 00000KT 10SM CLR 07/07 A3038 RMK AO1
KFME 220406Z AUTO 00000KT 10SM CLR 08/07 A3039 RMK AO1
KFME 220345Z AUTO 00000KT 10SM CLR 08/07 A3039 RMK AO1
KFME 220324Z AUTO 00000KT 10SM CLR 08/07 A3039 RMK AO1